Weather observations for the past three days for
Langley Air Force Base
Metric (Imperial)
Date Time (edt) Wind (kph) Vis. (km) Weather Sky Cond. Temperature (ºC) Relative Humidity Wind Chill (°C) Heat Index (°C) Pressure Precipitation (cm)
Air Dwpt 6 hour altimeter (cm) sea level (mb) 1 hr 3 hr 6 hr
Max. Min.
03 18:55 SE 9 16.09 Partly Cloudy SCT250 31.2 25 70% 38 76.02 1014.1
03 17:55 SE 7 16.09 Partly Cloudy SCT250 33.3 24.4 60% 40 76.02 1014.1
03 16:55 E 7 16.09 Partly Cloudy FEW050 SCT250 32.2 25.5 68% 40 76.05 1014.5
03 15:55 E 7 16.09 Partly Cloudy FEW050 SCT250 33.5 26.2 66% 43 76.1 1015.2
03 14:55 NW 7 16.09 A Few Clouds FEW060 FEW200 34.4 22.4 50% 39 76.15 1015.8
03 13:55 S 11 16.09 Partly Cloudy FEW025 SCT050 32.8 25.3 32.8 27 65% 41 76.17 1016.2
03 12:55 SE 7 16.09 Partly Cloudy SCT021 31.5 25.1 69% 39 76.25 1017.2
03 11:55 SE 7 16.09 Partly Cloudy SCT020 30.8 25.3 73% 38 76.28 1017.5
03 10:55 E 9 14.48 Partly Cloudy SCT014 29.2 24.9 78% 35 76.3 1017.9
03 09:55 NE 6 16.09 Overcast OVC010 28.3 25.3 84% 34 76.3 1017.9
03 08:55 SW 7 16.09 Mostly Cloudy BKN008 27.5 25.1 87% 32 76.28 1017.5
03 07:55 S 9 14.48 Mostly Cloudy BKN008 27 24.8 27 24 88% 31 76.28 1017.5
03 06:55 Calm 12.87 Mostly Cloudy BKN007 25.7 24.3 92% 27 76.25 1017.2
03 05:55 Calm 14.48 Mostly Cloudy BKN007 24.6 23 91% 25 76.23 1016.9
03 04:55 S 6 16.09 Fair CLR 24.8 23.4 92% 25 76.2 1016.5
03 03:55 SE 6 16.09 Fair CLR 24.7 23.1 91% 25 76.2 1016.5
03 02:55 Calm 16.09 A Few Clouds FEW250 25.7 23.5 88% 27 76.23 1016.9
03 01:55 SE 6 16.09 A Few Clouds FEW250 24.8 23.2 27.7 24.6 91% 25 76.25 1017.2
03 00:55 E 6 16.09 A Few Clouds FEW250 26.4 23 82% 29 76.25 1017.2
02 23:55 SE 6 16.09 Partly Cloudy SCT250 26.7 23.5 83% 29 76.25 1017.2
02 22:55 SE 9 16.09 Mostly Cloudy BKN250 26.9 23.5 82% 30 76.25 1017.2
02 21:55 E 9 16.09 Mostly Cloudy BKN250 26.4 23 82% 29 76.3 1017.9
02 20:55 E 15 16.09 Mostly Cloudy BKN250 27.6 22.5 74% 30 76.25 1017.2
02 19:55 W 7 16.09 Mostly Cloudy BKN250 27.1 22.7 31.1 27.1 77% 30 76.23 1016.9
02 18:55 S 11 16.09 Mostly Cloudy BKN230 27.7 22.4 73% 30 76.25 1017.2
02 17:55 E 15 16.09 Partly Cloudy FEW020 SCT200 28.6 22.8 71% 32 76.3 1017.9
02 16:55 NE 24 16.09 A Few Clouds FEW020 FEW200 30 23.6 69% 35 76.33 1018.2
02 15:55 NE 17 16.09 A Few Clouds FEW020 30.1 24.7 73% 36 76.33 1018.2
02 14:55 E 17 14.48 A Few Clouds FEW020 30.4 24.7 72% 36 76.33 1018.2
02 13:55 NE 19 14.48 Partly Cloudy FEW015 SCT020 30.9 24.7 32.5 27.2 70% 37 76.33 1018.2
02 12:55 NE 19 14.48 Partly Cloudy FEW014 SCT020 30.9 25.2 72% 38 76.3 1017.9
02 11:55 NE 17 14.48 A Few Clouds FEW020 31.3 24.6 68% 38 76.33 1018.2
02 10:55 N 13 16.09 Fair CLR 32.3 22.1 55% 36 76.3 1017.9
02 09:55 Calm 16.09 Fair CLR 30.6 23.7 67% 36 76.25 1017.2
02 08:55 NW 6 16.09 Fair CLR 29.1 23.9 74% 34 76.25 1017.2
02 07:55 Calm 16.09 A Few Clouds FEW150 27.1 24.1 27.9 25 84% 30 76.25 1017.2
02 06:55 SW 6 16.09 A Few Clouds FEW150 25.1 23.3 90% 26 76.23 1016.9
02 05:55 NE 11 16.09 A Few Clouds FEW080 25.7 23.3 87% 27 76.25 1017.2
02 04:55 SW 9 16.09 A Few Clouds FEW080 26.5 23.7 85% 29 76.17 1016.2
02 03:55 SW 13 16.09 Partly Cloudy SCT085 27.1 23.7 82% 30 76.17 1016.2
02 02:55 SW 13 16.09 A Few Clouds FEW085 27.4 23.8 81% 31 76.2 1016.5
02 01:55 SW 13 16.09 Fair CLR 27.8 23.8 29.9 27.7 79% 31 76.2 1016.5
02 00:55 S 13 16.09 A Few Clouds FEW250 28.3 23.8 77% 32 76.23 1016.8
01 23:55 S 13 16.09 A Few Clouds FEW250 29 23.6 73% 33 76.17 1016.2
01 22:55 SW 15 16.09 A Few Clouds FEW250 29.7 23.1 68% 34 76.17 1016.2
01 21:55 SW 9 16.09 A Few Clouds FEW250 29.7 23.1 68% 34 76.15 1015.8
01 20:55 S 6 16.09 Partly Cloudy SCT150 27.8 24 80% 32 76.1 1015.2
01 19:55 SE 7 16.09 Partly Cloudy SCT120 29.2 24.3 35.5 29.2 75% 34 76.07 1014.8
01 18:55 SE 9 16.09 Partly Cloudy SCT120 31.6 23.4 62% 37 76.12 1015.5
01 17:55 E 13 16.09 A Few Clouds FEW250 32.3 22.4 56% 37 76.12 1015.5
01 16:55 E 15 16.09 Partly Cloudy FEW060 SCT120 35.5 22.4 47% 41 76.15 1015.8
01 15:55 E 9 16.09 Mostly Cloudy SCT060 BKN250 34.9 21.1 45% 38 76.15 1015.8
01 14:55 E 9 16.09 A Few Clouds FEW050 FEW250 34.2 21.9 49% 38 76.17 1016.2
01 13:55 SE 13 16.09 A Few Clouds FEW050 FEW250 33.3 22.1 33.6 26.5 52% 37 76.2 1016.5
01 12:55 NE 9 16.09 Partly Cloudy FEW070 SCT120 33.5 22.9 54% 39 76.23 1016.8
01 11:55 E 9 16.09 A Few Clouds FEW250 32.1 22.2 56% 36 76.28 1017.5
01 10:55 NE 6 16.09 Partly Cloudy SCT170 31.5 22.2 58% 35 76.33 1018.2
01 09:55 W 7 16.09 Partly Cloudy SCT250 29.8 22.7 66% 34 76.33 1018.2
01 08:55 W 11 16.09 Mostly Cloudy BKN250 28.1 23 74% 31 76.3 1017.9
01 07:55 SW 11 16.09 A Few Clouds FEW250 26.4 22.8 26.5 24.6 81% 28 76.3 1017.9
01 06:55 SW 11 16.09 Fair CLR 24.9 22.7 88% 26 76.28 1017.5
01 05:55 SW 11 16.09 A Few Clouds FEW080 25.1 22.6 86% 26 76.25 1017.2
01 04:55 SW 13 16.09 Fair CLR 25.3 22.8 86% 26 76.28 1017.5
01 03:55 SW 15 16.09 A Few Clouds FEW150 25.9 22.8 83% 28 76.3 1017.9
01 02:55 SW 17 16.09 Partly Cloudy SCT150 26.3 22.7 81% 28 76.3 1017.9
01 01:55 S 15 16.09 Partly Cloudy SCT140 26.2 22.8 27.3 25.2 82% 28 76.35 1018.5 0.03
01 00:55 S 7 16.09 A Few Clouds FEW140 26 22.9 83% 28 76.38 1018.9
31 23:55 S 11 16.09 A Few Clouds FEW200 25.9 23 84% 28 76.35 1018.5
31 22:55 Calm 16.09 Partly Cloudy FEW070 SCT160 25.3 23.1 88% 26 76.38 1018.9 0.03
31 21:55 Calm 16.09 Light Drizzle SCT060 26 23.1 84% 28 76.38 1018.9 0.03
31 20:55 Calm 16.09 Partly Cloudy SCT050 SCT070 26.9 22.3 76% 29 76.35 1018.6
Date Time (edt) Wind (kph) Vis. (km) Weather Sky Cond. Air Dwpt Max. Min. Relative Humidity Wind Chill (°C) Heat Index (°C) altimeter (cm) sea level (mb) 1 hr 3 hr 6 hr
6 hour
Temperature (ºC) Pressure Precipitation (cm)